sensor_id;sensor_type;location;lat;lon;timestamp;pressure;altitude;pressure_sealevel;temperature;humidity
62617;BME280;62539;51.190;6.808;2023-12-20T00:00:58;101204.97;;;17.55;60.31
62617;BME280;62539;51.190;6.808;2023-12-20T00:03:24;101213.75;;;17.54;59.97
62617;BME280;62539;51.190;6.808;2023-12-20T00:05:50;101216.44;;;17.51;59.94
62617;BME280;62539;51.190;6.808;2023-12-20T00:08:16;101219.97;;;17.50;60.11
62617;BME280;62539;51.190;6.808;2023-12-20T00:10:42;101214.72;;;17.48;60.05
62617;BME280;62539;51.190;6.808;2023-12-20T00:13:08;101226.16;;;17.46;60.05
62617;BME280;62539;51.190;6.808;2023-12-20T00:15:34;101216.59;;;17.43;60.00
62617;BME280;62539;51.190;6.808;2023-12-20T00:17:59;101221.00;;;17.43;60.17
62617;BME280;62539;51.190;6.808;2023-12-20T00:20:26;101214.03;;;17.42;60.08
62617;BME280;62539;51.190;6.808;2023-12-20T00:22:54;101209.69;;;17.41;60.10
62617;BME280;62539;51.190;6.808;2023-12-20T00:25:21;101215.81;;;17.40;60.21
62617;BME280;62539;51.190;6.808;2023-12-20T00:27:46;101228.09;;;17.38;60.21
62617;BME280;62539;51.190;6.808;2023-12-20T00:30:12;101229.91;;;17.36;60.23
62617;BME280;62539;51.190;6.808;2023-12-20T00:32:38;101243.91;;;17.34;60.00
62617;BME280;62539;51.190;6.808;2023-12-20T00:35:03;101242.19;;;17.33;60.13
62617;BME280;62539;51.190;6.808;2023-12-20T00:37:29;101244.81;;;17.32;60.20
62617;BME280;62539;51.190;6.808;2023-12-20T00:39:54;101241.38;;;17.30;60.20
62617;BME280;62539;51.190;6.808;2023-12-20T00:42:20;101252.75;;;17.29;60.13
62617;BME280;62539;51.190;6.808;2023-12-20T00:44:45;101242.31;;;17.26;60.09
62617;BME280;62539;51.190;6.808;2023-12-20T00:47:11;101242.38;;;17.24;60.17
62617;BME280;62539;51.190;6.808;2023-12-20T00:49:36;101238.94;;;17.22;60.27
62617;BME280;62539;51.190;6.808;2023-12-20T00:52:01;101241.56;;;17.21;60.23
62617;BME280;62539;51.190;6.808;2023-12-20T00:54:27;101245.09;;;17.19;60.38
62617;BME280;62539;51.190;6.808;2023-12-20T00:56:53;101246.88;;;17.17;60.65
62617;BME280;62539;51.190;6.808;2023-12-20T00:59:19;101246.03;;;17.17;60.48
62617;BME280;62539;51.190;6.808;2023-12-20T01:01:44;101245.19;;;17.15;60.50
62617;BME280;62539;51.190;6.808;2023-12-20T01:04:10;101239.97;;;17.13;60.52
62617;BME280;62539;51.190;6.808;2023-12-20T01:06:35;101236.50;;;17.11;60.57
62617;BME280;62539;51.190;6.808;2023-12-20T01:09:01;101243.56;;;17.09;60.42
62617;BME280;62539;51.190;6.808;2023-12-20T01:11:26;101242.69;;;17.09;60.51
62617;BME280;62539;51.190;6.808;2023-12-20T01:13:51;101249.72;;;17.07;60.65
62617;BME280;62539;51.190;6.808;2023-12-20T01:16:17;101263.72;;;17.06;60.53
62617;BME280;62539;51.190;6.808;2023-12-20T01:18:42;101250.66;;;17.04;60.72
62617;BME280;62539;51.190;6.808;2023-12-20T01:21:08;101251.59;;;17.01;60.65
62617;BME280;62539;51.190;6.808;2023-12-20T01:23:33;101255.09;;;17.00;60.72
62617;BME280;62539;51.190;6.808;2023-12-20T01:25:59;101258.63;;;16.99;60.79
62617;BME280;62539;51.190;6.808;2023-12-20T01:28:28;101260.41;;;16.97;60.69
62617;BME280;62539;51.190;6.808;2023-12-20T01:30:53;101261.28;;;16.96;60.85
62617;BME280;62539;51.190;6.808;2023-12-20T01:33:19;101259.53;;;16.95;60.80
62617;BME280;62539;51.190;6.808;2023-12-20T01:35:44;101265.69;;;16.94;60.61
62617;BME280;62539;51.190;6.808;2023-12-20T01:38:10;101256.09;;;16.92;60.74
62617;BME280;62539;51.190;6.808;2023-12-20T01:40:35;101267.47;;;16.92;60.83
62617;BME280;62539;51.190;6.808;2023-12-20T01:43:02;101274.50;;;16.90;60.73
62617;BME280;62539;51.190;6.808;2023-12-20T01:45:31;101275.41;;;16.87;60.82
62617;BME280;62539;51.190;6.808;2023-12-20T01:47:57;101265.78;;;16.88;60.59
62617;BME280;62539;51.190;6.808;2023-12-20T01:50:24;101279.81;;;16.85;60.85
62617;BME280;62539;51.190;6.808;2023-12-20T01:52:50;101271.09;;;16.85;60.97
62617;BME280;62539;51.190;6.808;2023-12-20T01:55:18;101277.25;;;16.82;60.89
62617;BME280;62539;51.190;6.808;2023-12-20T01:57:45;101283.38;;;16.83;60.66
62617;BME280;62539;51.190;6.808;2023-12-20T02:00:13;101275.50;;;16.81;60.83
62617;BME280;62539;51.190;6.808;2023-12-20T02:02:40;101284.28;;;16.80;60.77
62617;BME280;62539;51.190;6.808;2023-12-20T02:05:06;101279.06;;;16.79;60.81
62617;BME280;62539;51.190;6.808;2023-12-20T02:07:33;101283.44;;;16.78;61.01
62617;BME280;62539;51.190;6.808;2023-12-20T02:10:00;101280.03;;;16.74;60.88
62617;BME280;62539;51.190;6.808;2023-12-20T02:12:29;101288.78;;;16.73;61.18
62617;BME280;62539;51.190;6.808;2023-12-20T02:14:55;101282.69;;;16.71;61.02
62617;BME280;62539;51.190;6.808;2023-12-20T02:17:21;101288.84;;;16.70;61.03
62617;BME280;62539;51.190;6.808;2023-12-20T02:19:48;101284.50;;;16.68;61.08
62617;BME280;62539;51.190;6.808;2023-12-20T02:22:14;101285.44;;;16.65;61.04
62617;BME280;62539;51.190;6.808;2023-12-20T02:24:39;101286.28;;;16.66;61.20
62617;BME280;62539;51.190;6.808;2023-12-20T02:27:06;101289.84;;;16.63;61.10
62617;BME280;62539;51.190;6.808;2023-12-20T02:29:33;101283.75;;;16.61;61.39
62617;BME280;62539;51.190;6.808;2023-12-20T02:31:59;101289.91;;;16.58;61.19
62617;BME280;62539;51.190;6.808;2023-12-20T02:34:24;101284.72;;;16.57;61.23
62617;BME280;62539;51.190;6.808;2023-12-20T02:36:50;101296.97;;;16.55;61.31
62617;BME280;62539;51.190;6.808;2023-12-20T02:39:16;101302.22;;;16.53;61.20
62617;BME280;62539;51.190;6.808;2023-12-20T02:41:41;101304.00;;;16.53;61.21
62617;BME280;62539;51.190;6.808;2023-12-20T02:44:07;101297.91;;;16.51;61.13
62617;BME280;62539;51.190;6.808;2023-12-20T02:46:32;101297.91;;;16.51;61.07
62617;BME280;62539;51.190;6.808;2023-12-20T02:48:58;101303.19;;;16.48;61.35
62617;BME280;62539;51.190;6.808;2023-12-20T02:51:23;101305.81;;;16.48;61.33
62617;BME280;62539;51.190;6.808;2023-12-20T02:53:49;101300.63;;;16.44;61.30
62617;BME280;62539;51.190;6.808;2023-12-20T02:56:14;101296.28;;;16.43;61.35
62617;BME280;62539;51.190;6.808;2023-12-20T02:58:40;101294.56;;;16.42;61.43
62617;BME280;62539;51.190;6.808;2023-12-20T03:01:05;101294.56;;;16.42;61.56
62617;BME280;62539;51.190;6.808;2023-12-20T03:03:31;101294.56;;;16.41;61.30
62617;BME280;62539;51.190;6.808;2023-12-20T03:05:57;101297.22;;;16.39;61.39
62617;BME280;62539;51.190;6.808;2023-12-20T03:08:22;101293.72;;;16.39;61.26
62617;BME280;62539;51.190;6.808;2023-12-20T03:10:48;101298.13;;;16.38;61.36
62617;BME280;62539;51.190;6.808;2023-12-20T03:13:13;101298.13;;;16.38;61.20
62617;BME280;62539;51.190;6.808;2023-12-20T03:15:39;101296.41;;;16.37;61.35
62617;BME280;62539;51.190;6.808;2023-12-20T03:18:05;101299.91;;;16.36;61.38
62617;BME280;62539;51.190;6.808;2023-12-20T03:20:31;101303.41;;;16.35;61.31
62617;BME280;62539;51.190;6.808;2023-12-20T03:22:59;101300.81;;;16.34;61.62
62617;BME280;62539;51.190;6.808;2023-12-20T03:25:25;101293.84;;;16.33;61.25
62617;BME280;62539;51.190;6.808;2023-12-20T03:27:51;101293.00;;;16.32;61.33
62617;BME280;62539;51.190;6.808;2023-12-20T03:30:18;101297.34;;;16.31;61.37
62617;BME280;62539;51.190;6.808;2023-12-20T03:32:43;101297.38;;;16.30;61.64
62617;BME280;62539;51.190;6.808;2023-12-20T03:35:09;101304.38;;;16.29;61.57
62617;BME280;62539;51.190;6.808;2023-12-20T03:37:34;101300.00;;;16.28;61.66
62617;BME280;62539;51.190;6.808;2023-12-20T03:40:00;101300.91;;;16.27;61.34
62617;BME280;62539;51.190;6.808;2023-12-20T03:42:26;101293.94;;;16.26;61.65
62617;BME280;62539;51.190;6.808;2023-12-20T03:44:51;101290.47;;;16.26;61.54
62617;BME280;62539;51.190;6.808;2023-12-20T03:47:16;101287.03;;;16.22;61.63
62617;BME280;62539;51.190;6.808;2023-12-20T03:49:42;101277.44;;;16.23;61.32
62617;BME280;62539;51.190;6.808;2023-12-20T03:52:07;101284.44;;;16.21;61.35
62617;BME280;62539;51.190;6.808;2023-12-20T03:54:35;101281.81;;;16.21;61.38
62617;BME280;62539;51.190;6.808;2023-12-20T03:57:00;101281.00;;;16.19;61.70
62617;BME280;62539;51.190;6.808;2023-12-20T03:59:26;101285.38;;;16.16;61.73
62617;BME280;62539;51.190;6.808;2023-12-20T04:01:52;101288.00;;;16.16;61.83
62617;BME280;62539;51.190;6.808;2023-12-20T04:04:17;101292.34;;;16.16;61.72
62617;BME280;62539;51.190;6.808;2023-12-20T04:06:43;101286.28;;;16.15;61.73
62617;BME280;62539;51.190;6.808;2023-12-20T04:09:08;101295.00;;;16.14;61.64
62617;BME280;62539;51.190;6.808;2023-12-20T04:11:34;101295.91;;;16.13;61.49
62617;BME280;62539;51.190;6.808;2023-12-20T04:14:00;101294.19;;;16.12;61.78
62617;BME280;62539;51.190;6.808;2023-12-20T04:16:26;101285.44;;;16.12;61.69
62617;BME280;62539;51.190;6.808;2023-12-20T04:18:51;101283.72;;;16.11;61.88
62617;BME280;62539;51.190;6.808;2023-12-20T04:21:17;101276.75;;;16.10;61.73
62617;BME280;62539;51.190;6.808;2023-12-20T04:23:43;101276.78;;;16.08;61.96
62617;BME280;62539;51.190;6.808;2023-12-20T04:26:09;101283.75;;;16.08;61.59
62617;BME280;62539;51.190;6.808;2023-12-20T04:28:35;101283.75;;;16.08;61.75
62617;BME280;62539;51.190;6.808;2023-12-20T04:31:00;101306.47;;;16.06;61.61
62617;BME280;62539;51.190;6.808;2023-12-20T04:33:26;101298.66;;;16.04;61.63
62617;BME280;62539;51.190;6.808;2023-12-20T04:35:51;101303.03;;;16.04;61.34
62617;BME280;62539;51.190;6.808;2023-12-20T04:38:17;101305.47;;;16.14;61.30
62617;BME280;62539;51.190;6.808;2023-12-20T04:40:42;101294.75;;;16.30;60.36
62617;BME280;62539;51.190;6.808;2023-12-20T04:43:07;101298.88;;;16.45;60.45
62617;BME280;62539;51.190;6.808;2023-12-20T04:45:34;101296.03;;;16.59;59.58
62617;BME280;62539;51.190;6.808;2023-12-20T04:47:59;101294.06;;;16.70;59.50
62617;BME280;62539;51.190;6.808;2023-12-20T04:50:26;101296.47;;;16.81;59.33
62617;BME280;62539;51.190;6.808;2023-12-20T04:52:51;101291.94;;;16.91;59.38
62617;BME280;62539;51.190;6.808;2023-12-20T04:55:17;101290.06;;;16.99;58.83
62617;BME280;62539;51.190;6.808;2023-12-20T04:57:42;101293.41;;;17.06;58.44
62617;BME280;62539;51.190;6.808;2023-12-20T05:00:08;101298.59;;;17.11;58.37
62617;BME280;62539;51.190;6.808;2023-12-20T05:02:35;101294.16;;;17.13;58.09
62617;BME280;62539;51.190;6.808;2023-12-20T05:05:01;101304.63;;;17.14;58.09
62617;BME280;62539;51.190;6.808;2023-12-20T05:07:26;101289.75;;;17.15;58.28
62617;BME280;62539;51.190;6.808;2023-12-20T05:09:52;101292.34;;;17.16;58.19
62617;BME280;62539;51.190;6.808;2023-12-20T05:12:17;101294.94;;;17.18;58.16
62617;BME280;62539;51.190;6.808;2023-12-20T05:14:42;101296.63;;;17.21;58.37
62617;BME280;62539;51.190;6.808;2023-12-20T05:17:08;101295.66;;;17.25;57.92
62617;BME280;62539;51.190;6.808;2023-12-20T05:19:33;101294.69;;;17.30;57.87
62617;BME280;62539;51.190;6.808;2023-12-20T05:22:02;101302.50;;;17.33;57.64
62617;BME280;62539;51.190;6.808;2023-12-20T05:24:27;101298.03;;;17.39;57.44
62617;BME280;62539;51.190;6.808;2023-12-20T05:26:53;101293.53;;;17.44;57.12
62617;BME280;62539;51.190;6.808;2023-12-20T05:29:19;101289.06;;;17.47;57.08
62617;BME280;62539;51.190;6.808;2023-12-20T05:31:44;101299.47;;;17.52;57.36
62617;BME280;62539;51.190;6.808;2023-12-20T05:34:10;101301.16;;;17.56;57.10
62617;BME280;62539;51.190;6.808;2023-12-20T05:36:36;101299.28;;;17.61;56.87
62617;BME280;62539;51.190;6.808;2023-12-20T05:39:02;101293.09;;;17.64;57.17
62617;BME280;62539;51.190;6.808;2023-12-20T05:41:29;101292.16;;;17.67;56.72
62617;BME280;62539;51.190;6.808;2023-12-20T05:43:55;101287.69;;;17.70;56.66
62617;BME280;62539;51.190;6.808;2023-12-20T05:46:20;101290.31;;;17.72;56.65
62617;BME280;62539;51.190;6.808;2023-12-20T05:48:46;101285.84;;;17.75;56.68
62617;BME280;62539;51.190;6.808;2023-12-20T05:51:12;101295.41;;;17.78;57.04
62617;BME280;62539;51.190;6.808;2023-12-20T05:53:38;101292.72;;;17.81;57.05
62617;BME280;62539;51.190;6.808;2023-12-20T05:56:04;101289.13;;;17.85;56.89
62617;BME280;62539;51.190;6.808;2023-12-20T05:58:30;101282.03;;;17.89;57.16
62617;BME280;62539;51.190;6.808;2023-12-20T06:00:55;101277.59;;;17.92;56.27
62617;BME280;62539;51.190;6.808;2023-12-20T06:03:21;101284.50;;;17.95;56.46
62617;BME280;62539;51.190;6.808;2023-12-20T06:05:46;101287.94;;;17.99;56.55
62617;BME280;62539;51.190;6.808;2023-12-20T06:08:11;101289.63;;;18.03;56.03
62617;BME280;62539;51.190;6.808;2023-12-20T06:10:37;101289.56;;;18.06;56.08
62617;BME280;62539;51.190;6.808;2023-12-20T06:13:03;101298.25;;;18.08;55.92
62617;BME280;62539;51.190;6.808;2023-12-20T06:15:29;101285.94;;;18.10;56.23
62617;BME280;62539;51.190;6.808;2023-12-20T06:17:55;101305.16;;;18.12;55.84
62617;BME280;62539;51.190;6.808;2023-12-20T06:20:20;101306.00;;;18.13;55.88
62617;BME280;62539;51.190;6.808;2023-12-20T06:22:46;101304.28;;;18.12;55.47
62617;BME280;62539;51.190;6.808;2023-12-20T06:25:11;101302.56;;;18.11;56.14
62617;BME280;62539;51.190;6.808;2023-12-20T06:27:37;101308.75;;;18.08;55.98
62617;BME280;62539;51.190;6.808;2023-12-20T06:30:02;101305.31;;;18.06;55.64
62617;BME280;62539;51.190;6.808;2023-12-20T06:32:28;101293.91;;;18.05;56.03
62617;BME280;62539;51.190;6.808;2023-12-20T06:34:54;101300.16;;;18.01;55.68
62617;BME280;62539;51.190;6.808;2023-12-20T06:37:20;101302.81;;;17.98;56.33
62617;BME280;62539;51.190;6.808;2023-12-20T06:39:45;101301.22;;;17.92;56.98
62617;BME280;62539;51.190;6.808;2023-12-20T06:42:11;101303.84;;;17.92;56.71
62617;BME280;62539;51.190;6.808;2023-12-20T06:44:37;101299.41;;;17.95;57.14
62617;BME280;62539;51.190;6.808;2023-12-20T06:47:04;101300.25;;;17.95;57.77
62617;BME280;62539;51.190;6.808;2023-12-20T06:49:29;101301.97;;;17.98;57.57
62617;BME280;62539;51.190;6.808;2023-12-20T06:51:55;101301.91;;;17.99;57.60
62617;BME280;62539;51.190;6.808;2023-12-20T06:54:20;101305.38;;;18.03;57.83
62617;BME280;62539;51.190;6.808;2023-12-20T06:56:46;101304.44;;;18.05;57.58
62617;BME280;62539;51.190;6.808;2023-12-20T06:59:11;101303.50;;;18.08;57.36
62617;BME280;62539;51.190;6.808;2023-12-20T07:01:37;101300.81;;;18.11;57.49
62617;BME280;62539;51.190;6.808;2023-12-20T07:04:03;101298.94;;;18.15;57.85
62617;BME280;62539;51.190;6.808;2023-12-20T07:06:28;101298.84;;;18.19;57.42
62617;BME280;62539;51.190;6.808;2023-12-20T07:08:54;101299.63;;;18.23;57.37
62617;BME280;62539;51.190;6.808;2023-12-20T07:11:19;101293.41;;;18.27;57.31
62617;BME280;62539;51.190;6.808;2023-12-20T07:13:45;101296.84;;;18.29;56.91
62617;BME280;62539;51.190;6.808;2023-12-20T07:16:10;101304.63;;;18.34;57.05
62617;BME280;62539;51.190;6.808;2023-12-20T07:18:36;101300.22;;;18.34;57.10
62617;BME280;62539;51.190;6.808;2023-12-20T07:21:01;101303.66;;;18.38;56.79
62617;BME280;62539;51.190;6.808;2023-12-20T07:23:27;101294.88;;;18.39;56.69
62617;BME280;62539;51.190;6.808;2023-12-20T07:25:52;101300.13;;;18.39;57.02
62617;BME280;62539;51.190;6.808;2023-12-20T07:28:17;101298.34;;;18.40;56.74
62617;BME280;62539;51.190;6.808;2023-12-20T07:30:43;101305.41;;;18.38;56.59
62617;BME280;62539;51.190;6.808;2023-12-20T07:33:08;101304.56;;;18.37;56.88
62617;BME280;62539;51.190;6.808;2023-12-20T07:35:34;101293.25;;;18.33;56.86
62617;BME280;62539;51.190;6.808;2023-12-20T07:38:00;101306.44;;;18.32;56.88
62617;BME280;62539;51.190;6.808;2023-12-20T07:40:25;101304.78;;;18.28;56.42
62617;BME280;62539;51.190;6.808;2023-12-20T07:42:51;101297.81;;;18.25;57.30
62617;BME280;62539;51.190;6.808;2023-12-20T07:45:16;101298.84;;;18.19;56.74
62617;BME280;62539;51.190;6.808;2023-12-20T07:47:41;101295.41;;;18.16;56.87
62617;BME280;62539;51.190;6.808;2023-12-20T07:50:07;101299.84;;;18.14;56.97
62617;BME280;62539;51.190;6.808;2023-12-20T07:52:32;101296.44;;;18.10;56.55
62617;BME280;62539;51.190;6.808;2023-12-20T07:54:58;101300.94;;;18.05;56.57
62617;BME280;62539;51.190;6.808;2023-12-20T07:57:23;101299.22;;;18.04;57.29
62617;BME280;62539;51.190;6.808;2023-12-20T07:59:49;101302.78;;;18.01;57.43
62617;BME280;62539;51.190;6.808;2023-12-20T08:02:14;101302.81;;;17.98;57.83
62617;BME280;62539;51.190;6.808;2023-12-20T08:04:40;101303.75;;;17.96;57.82
62617;BME280;62539;51.190;6.808;2023-12-20T08:07:06;101309.91;;;17.95;57.62
62617;BME280;62539;51.190;6.808;2023-12-20T08:09:31;101310.69;;;17.98;58.12
62617;BME280;62539;51.190;6.808;2023-12-20T08:11:58;101299.56;;;17.05;49.25
62617;BME280;62539;51.190;6.808;2023-12-20T08:14:25;101300.69;;;16.41;49.06
62617;BME280;62539;51.190;6.808;2023-12-20T08:16:50;101297.19;;;15.86;48.88
62617;BME280;62539;51.190;6.808;2023-12-20T08:19:16;101303.91;;;16.04;51.55
62617;BME280;62539;51.190;6.808;2023-12-20T08:21:42;101301.72;;;16.31;51.54
62617;BME280;62539;51.190;6.808;2023-12-20T08:24:08;101303.00;;;16.58;52.22
62617;BME280;62539;51.190;6.808;2023-12-20T08:26:33;101301.66;;;16.84;52.39
62617;BME280;62539;51.190;6.808;2023-12-20T08:28:59;101305.63;;;17.09;52.64
62617;BME280;62539;51.190;6.808;2023-12-20T08:31:24;101296.47;;;17.28;52.58
62617;BME280;62539;51.190;6.808;2023-12-20T08:33:51;101298.81;;;17.42;52.59
62617;BME280;62539;51.190;6.808;2023-12-20T08:36:19;101302.06;;;17.54;52.85
62617;BME280;62539;51.190;6.808;2023-12-20T08:38:46;101298.31;;;17.66;52.81
62617;BME280;62539;51.190;6.808;2023-12-20T08:41:12;101309.50;;;17.74;52.44
62617;BME280;62539;51.190;6.808;2023-12-20T08:43:37;101319.88;;;17.80;53.00
62617;BME280;62539;51.190;6.808;2023-12-20T08:46:05;101323.25;;;17.85;53.04
62617;BME280;62539;51.190;6.808;2023-12-20T08:48:30;101319.66;;;17.89;53.23
62617;BME280;62539;51.190;6.808;2023-12-20T08:50:56;101316.97;;;17.91;53.13
62617;BME280;62539;51.190;6.808;2023-12-20T08:53:21;101322.22;;;17.91;53.10
62617;BME280;62539;51.190;6.808;2023-12-20T08:55:47;101323.94;;;17.92;53.37
62617;BME280;62539;51.190;6.808;2023-12-20T08:58:13;101328.34;;;17.91;53.70
62617;BME280;62539;51.190;6.808;2023-12-20T09:00:38;101324.00;;;17.90;54.06
62617;BME280;62539;51.190;6.808;2023-12-20T09:03:04;101319.66;;;17.89;53.80
62617;BME280;62539;51.190;6.808;2023-12-20T09:05:30;101328.34;;;17.91;54.17
62617;BME280;62539;51.190;6.808;2023-12-20T09:07:55;101320.44;;;17.93;54.37
62617;BME280;62539;51.190;6.808;2023-12-20T09:10:21;101322.97;;;17.96;53.71
62617;BME280;62539;51.190;6.808;2023-12-20T09:12:50;101323.81;;;18.00;54.02
62617;BME280;62539;51.190;6.808;2023-12-20T09:15:17;101314.06;;;18.05;53.98
62617;BME280;62539;51.190;6.808;2023-12-20T09:17:44;101305.22;;;18.09;54.03
62617;BME280;62539;51.190;6.808;2023-12-20T09:20:10;101302.44;;;18.15;54.15
62617;BME280;62539;51.190;6.808;2023-12-20T09:22:35;101302.31;;;18.21;53.60
62617;BME280;62539;51.190;6.808;2023-12-20T09:25:01;101302.16;;;18.28;53.88
62617;BME280;62539;51.190;6.808;2023-12-20T09:27:29;101304.63;;;18.34;53.67
62617;BME280;62539;51.190;6.808;2023-12-20T09:29:54;101303.66;;;18.36;53.59
62617;BME280;62539;51.190;6.808;2023-12-20T09:32:19;101301.88;;;18.39;54.00
62617;BME280;62539;51.190;6.808;2023-12-20T09:34:48;101305.38;;;18.39;54.21
62617;BME280;62539;51.190;6.808;2023-12-20T09:37:13;101310.56;;;18.41;54.53
62617;BME280;62539;51.190;6.808;2023-12-20T09:39:39;101311.44;;;18.41;54.50
62617;BME280;62539;51.190;6.808;2023-12-20T09:42:05;101304.47;;;18.40;54.40
62617;BME280;62539;51.190;6.808;2023-12-20T09:44:32;101303.59;;;18.40;54.47
62617;BME280;62539;51.190;6.808;2023-12-20T09:47:03;101308.00;;;18.39;54.23
62617;BME280;62539;51.190;6.808;2023-12-20T09:49:30;101298.34;;;18.40;54.54
62617;BME280;62539;51.190;6.808;2023-12-20T09:51:56;101307.94;;;18.41;54.67
62617;BME280;62539;51.190;6.808;2023-12-20T09:54:23;101304.41;;;18.43;54.87
62617;BME280;62539;51.190;6.808;2023-12-20T09:56:49;101305.16;;;18.47;54.89
62617;BME280;62539;51.190;6.808;2023-12-20T09:59:15;101302.44;;;18.51;54.74
62617;BME280;62539;51.190;6.808;2023-12-20T10:01:41;101300.53;;;18.57;54.63
62617;BME280;62539;51.190;6.808;2023-12-20T10:04:12;101296.91;;;18.61;54.67
62617;BME280;62539;51.190;6.808;2023-12-20T10:06:42;101296.81;;;18.64;54.88
62617;BME280;62539;51.190;6.808;2023-12-20T10:09:09;101300.28;;;18.66;54.71
62617;BME280;62539;51.190;6.808;2023-12-20T10:11:36;101302.81;;;18.69;54.87
62617;BME280;62539;51.190;6.808;2023-12-20T10:14:02;101305.38;;;18.72;54.24
62617;BME280;62539;51.190;6.808;2023-12-20T10:16:29;101297.47;;;18.74;54.77
62617;BME280;62539;51.190;6.808;2023-12-20T10:18:56;101303.56;;;18.74;54.65
62617;BME280;62539;51.190;6.808;2023-12-20T10:21:22;101293.09;;;18.73;54.69
62617;BME280;62539;51.190;6.808;2023-12-20T10:23:51;101294.00;;;18.72;54.85
62617;BME280;62539;51.190;6.808;2023-12-20T10:26:24;101296.66;;;18.70;55.23
62617;BME280;62539;51.190;6.808;2023-12-20T10:28:53;101294.03;;;18.70;55.31
62617;BME280;62539;51.190;6.808;2023-12-20T10:31:30;101281.78;;;18.71;55.03
62617;BME280;62539;51.190;6.808;2023-12-20T10:33:58;101287.78;;;18.74;55.65
62617;BME280;62539;51.190;6.808;2023-12-20T10:36:26;101277.19;;;18.77;55.75
62617;BME280;62539;51.190;6.808;2023-12-20T10:38:53;101259.59;;;18.81;56.01
62617;BME280;62539;51.190;6.808;2023-12-20T10:41:25;101266.50;;;18.84;54.99
62617;BME280;62539;51.190;6.808;2023-12-20T10:43:55;101255.91;;;18.87;54.30
62617;BME280;62539;51.190;6.808;2023-12-20T10:46:23;101259.34;;;18.89;54.29
62617;BME280;62539;51.190;6.808;2023-12-20T10:48:55;101259.34;;;18.89;54.59
62617;BME280;62539;51.190;6.808;2023-12-20T10:51:24;101253.28;;;18.87;54.67
62617;BME280;62539;51.190;6.808;2023-12-20T10:53:55;101261.16;;;18.87;55.13
62617;BME280;62539;51.190;6.808;2023-12-20T10:56:22;101266.44;;;18.87;54.77
62617;BME280;62539;51.190;6.808;2023-12-20T10:58:49;101261.16;;;18.88;54.54
62617;BME280;62539;51.190;6.808;2023-12-20T11:01:19;101259.25;;;18.93;54.52
62617;BME280;62539;51.190;6.808;2023-12-20T11:03:49;101264.44;;;18.95;54.44
62617;BME280;62539;51.190;6.808;2023-12-20T11:09:04;101265.19;;;19.02;55.79
62617;BME280;62539;51.190;6.808;2023-12-20T11:14:46;101263.41;;;19.02;55.96
62617;BME280;62539;51.190;6.808;2023-12-20T11:17:13;101267.84;;;19.00;55.93
62617;BME280;62539;51.190;6.808;2023-12-20T11:22:25;101263.53;;;18.98;56.46
62617;BME280;62539;51.190;6.808;2023-12-20T11:24:59;101247.81;;;18.94;55.65
62617;BME280;62539;51.190;6.808;2023-12-20T11:27:30;101246.19;;;18.90;56.13
62617;BME280;62539;51.190;6.808;2023-12-20T11:29:57;101238.31;;;18.89;55.80
62617;BME280;62539;51.190;6.808;2023-12-20T11:35:16;101257.47;;;18.94;55.63
62617;BME280;62539;51.190;6.808;2023-12-20T11:37:45;101238.09;;;18.98;55.99
62617;BME280;62539;51.190;6.808;2023-12-20T11:40:16;101234.47;;;19.02;55.90
62617;BME280;62539;51.190;6.808;2023-12-20T11:42:45;101238.78;;;19.05;56.27
62617;BME280;62539;51.190;6.808;2023-12-20T11:45:15;101237.75;;;19.10;55.45
62617;BME280;62539;51.190;6.808;2023-12-20T11:47:46;101242.06;;;19.13;55.49
62617;BME280;62539;51.190;6.808;2023-12-20T11:50:15;101238.38;;;19.19;55.45
62617;BME280;62539;51.190;6.808;2023-12-20T11:52:41;101234.75;;;19.23;55.03
62617;BME280;62539;51.190;6.808;2023-12-20T11:55:06;101240.81;;;19.25;55.01
62617;BME280;62539;51.190;6.808;2023-12-20T11:57:33;101236.28;;;19.30;54.96
62617;BME280;62539;51.190;6.808;2023-12-20T11:59:58;101227.38;;;19.34;54.81
62617;BME280;62539;51.190;6.808;2023-12-20T12:02:24;101234.34;;;19.37;54.35
62617;BME280;62539;51.190;6.808;2023-12-20T12:04:50;101216.75;;;19.39;54.59
62617;BME280;62539;51.190;6.808;2023-12-20T12:07:18;101217.50;;;19.43;54.13
62617;BME280;62539;51.190;6.808;2023-12-20T12:09:45;101213.13;;;19.42;54.50
62617;BME280;62539;51.190;6.808;2023-12-20T12:12:12;101207.94;;;19.40;54.12
62617;BME280;62539;51.190;6.808;2023-12-20T12:14:38;101202.00;;;19.33;54.32
62617;BME280;62539;51.190;6.808;2023-12-20T12:17:10;101200.47;;;19.26;54.40
62617;BME280;62539;51.190;6.808;2023-12-20T12:19:37;101197.91;;;19.24;54.78
62617;BME280;62539;51.190;6.808;2023-12-20T12:22:15;101204.88;;;19.26;54.35
62617;BME280;62539;51.190;6.808;2023-12-20T12:24:43;101204.91;;;19.24;55.04
62617;BME280;62539;51.190;6.808;2023-12-20T12:27:09;101195.19;;;19.26;55.11
62617;BME280;62539;51.190;6.808;2023-12-20T12:29:36;101202.09;;;19.30;54.71
62617;BME280;62539;51.190;6.808;2023-12-20T12:32:08;101202.91;;;19.32;54.80
62617;BME280;62539;51.190;6.808;2023-12-20T12:34:37;101195.78;;;19.36;54.26
62617;BME280;62539;51.190;6.808;2023-12-20T12:37:04;101194.00;;;19.36;54.67
62617;BME280;62539;51.190;6.808;2023-12-20T12:39:30;101203.53;;;19.41;54.65
62617;BME280;62539;51.190;6.808;2023-12-20T12:41:56;101194.72;;;19.42;54.28
62617;BME280;62539;51.190;6.808;2023-12-20T12:44:22;101198.25;;;19.41;54.36
62617;BME280;62539;51.190;6.808;2023-12-20T12:46:52;101199.06;;;19.43;54.65
62617;BME280;62539;51.190;6.808;2023-12-20T12:49:20;101199.97;;;19.42;54.57
62617;BME280;62539;51.190;6.808;2023-12-20T12:51:46;101187.81;;;19.39;54.44
62617;BME280;62539;51.190;6.808;2023-12-20T12:54:12;101179.00;;;19.40;54.04
62617;BME280;62539;51.190;6.808;2023-12-20T12:56:39;101173.84;;;19.37;54.76